Station Historical Data
Daily Summary for June 8, 2012 Units:  Both    English   Metric
« Previous Day
Next Day »
Daily Weekly Monthly Yearly Custom
  High: Low: Average:
Temperature: 83.3 °F /  28.5 °C 61.5 °F /  16.4 °C 72.8 °F /  22.7 °C
Dew Point: 63.5 °F /  17.5 °C 54.2 °F /  12.3 °C 58.1 °F /  14.5 °C
Humidity: 77% 40% 62%
Wind Speed: 8.0mph /  12.9km/h - 2.8mph /  4.5km/h
Wind Gust: 11.0mph /  17.7km/h - -
Wind- - ENE
Pressure: 30.03 in /  1016.8 hPa 29.90 in /  1012.4 hPa -
Precipitation: 0.00 in /  0 mm    
Historical Graphs
 
 
Tabular Data for June 8, 2012
Time Temperature Dew Point Pressure Wind Wind Speed Wind Gust Humidity Rainfall Rate (Hourly) Conditions
00:00 66.3 °F /  19.1 °C 57.8 °F /  14.3 °C 29.97in /  1014.8hPa NNE 3.0mph /  4.8km/h 3.0mph /  4.8km/h 74% 0.00in /  0mm
00:05 66.3 °F /  19.1 °C 57.8 °F /  14.3 °C 29.97in /  1014.8hPa NNE 2.0mph /  3.2km/h 3.0mph /  4.8km/h 74% 0.00in /  0mm
00:10 66.3 °F /  19.1 °C 57.8 °F /  14.3 °C 29.97in /  1014.8hPa NE 1.0mph /  1.6km/h 4.0mph /  6.4km/h 74% 0.00in /  0mm
00:15 66.2 °F /  19 °C 57.7 °F /  14.3 °C 29.97in /  1014.8hPa North 2.0mph /  3.2km/h 3.0mph /  4.8km/h 74% 0.00in /  0mm
00:20 66.1 °F /  18.9 °C 57.6 °F /  14.2 °C 29.97in /  1014.8hPa NE 2.0mph /  3.2km/h 4.0mph /  6.4km/h 74% 0.00in /  0mm
00:25 66.1 °F /  18.9 °C 57.6 °F /  14.2 °C 29.97in /  1014.8hPa NNE 1.0mph /  1.6km/h 3.0mph /  4.8km/h 74% 0.00in /  0mm
00:30 66.1 °F /  18.9 °C 57.6 °F /  14.2 °C 29.97in /  1014.8hPa NNE 2.0mph /  3.2km/h 4.0mph /  6.4km/h 74% 0.00in /  0mm
00:35 66.0 °F /  18.9 °C 57.5 °F /  14.2 °C 29.97in /  1014.8hPa NNW 2.0mph /  3.2km/h 4.0mph /  6.4km/h 74% 0.00in /  0mm
00:40 66.1 °F /  18.9 °C 57.6 °F /  14.2 °C 29.97in /  1014.8hPa North 2.0mph /  3.2km/h 3.0mph /  4.8km/h 74% 0.00in /  0mm
00:45 66.1 °F /  18.9 °C 57.6 °F /  14.2 °C 29.97in /  1014.8hPa NNE 3.0mph /  4.8km/h 4.0mph /  6.4km/h 74% 0.00in /  0mm
00:50 66.1 °F /  18.9 °C 57.2 °F /  14 °C 29.97in /  1014.8hPa NNE 2.0mph /  3.2km/h 4.0mph /  6.4km/h 73% 0.00in /  0mm
00:56 66.2 °F /  19 °C 57.3 °F /  14.1 °C 29.97in /  1014.8hPa NNE 3.0mph /  4.8km/h 3.0mph /  4.8km/h 73% 0.00in /  0mm
01:01 66.1 °F /  18.9 °C 57.2 °F /  14 °C 29.97in /  1014.8hPa NE 4.0mph /  6.4km/h 4.0mph /  6.4km/h 73% 0.00in /  0mm
01:06 66.1 °F /  18.9 °C 57.2 °F /  14 °C 29.97in /  1014.8hPa NE 2.0mph /  3.2km/h 4.0mph /  6.4km/h 73% 0.00in /  0mm
01:11 66.1 °F /  18.9 °C 56.8 °F /  13.8 °C 29.97in /  1014.8hPa NE 4.0mph /  6.4km/h 4.0mph /  6.4km/h 72% 0.00in /  0mm
01:16 66.0 °F /  18.9 °C 57.1 °F /  13.9 °C 29.97in /  1014.8hPa NNE 2.0mph /  3.2km/h 3.0mph /  4.8km/h 73% 0.00in /  0mm
01:21 65.8 °F /  18.8 °C 56.9 °F /  13.8 °C 29.97in /  1014.8hPa NE 4.0mph /  6.4km/h 4.0mph /  6.4km/h 73% 0.00in /  0mm
01:26 65.8 °F /  18.8 °C 56.9 °F /  13.8 °C 29.97in /  1014.8hPa NNE 1.0mph /  1.6km/h 3.0mph /  4.8km/h 73% 0.00in /  0mm
01:31 65.6 °F /  18.7 °C 56.7 °F /  13.7 °C 29.97in /  1014.8hPa NNE 3.0mph /  4.8km/h 4.0mph /  6.4km/h 73% 0.00in /  0mm
01:36 65.5 °F /  18.6 °C 56.6 °F /  13.7 °C 29.97in /  1014.8hPa NNE 3.0mph /  4.8km/h 4.0mph /  6.4km/h 73% 0.00in /  0mm
01:41 65.4 °F /  18.6 °C 56.5 °F /  13.6 °C 29.97in /  1014.8hPa NNE 1.0mph /  1.6km/h 5.0mph /  8km/h 73% 0.00in /  0mm
01:46 65.5 °F /  18.6 °C 56.6 °F /  13.7 °C 29.97in /  1014.8hPa NNE 3.0mph /  4.8km/h 4.0mph /  6.4km/h 73% 0.00in /  0mm
01:51 65.4 °F /  18.6 °C 56.5 °F /  13.6 °C 29.97in /  1014.8hPa NNE 3.0mph /  4.8km/h 3.0mph /  4.8km/h 73% 0.00in /  0mm
01:56 65.3 °F /  18.5 °C 56.4 °F /  13.6 °C 29.97in /  1014.8hPa North 4.0mph /  6.4km/h 5.0mph /  8km/h 73% 0.00in /  0mm
02:01 65.2 °F /  18.4 °C 56.3 °F /  13.5 °C 29.97in /  1014.8hPa NE 2.0mph /  3.2km/h 4.0mph /  6.4km/h 73% 0.00in /  0mm
02:06 65.0 °F /  18.3 °C 56.2 °F /  13.4 °C 29.97in /  1014.8hPa NNE 3.0mph /  4.8km/h 4.0mph /  6.4km/h 73% 0.00in /  0mm
02:11 65.0 °F /  18.3 °C 56.2 °F /  13.4 °C 29.97in /  1014.8hPa NNE 3.0mph /  4.8km/h 6.0mph /  9.7km/h 73% 0.00in /  0mm
02:16 65.0 °F /  18.3 °C 56.2 °F /  13.4 °C 29.97in /  1014.8hPa NNE 4.0mph /  6.4km/h 5.0mph /  8km/h 73% 0.00in /  0mm
02:21 65.0 °F /  18.3 °C 56.2 °F /  13.4 °C 29.96in /  1014.4hPa North 2.0mph /  3.2km/h 4.0mph /  6.4km/h 73% 0.00in /  0mm
02:26 64.9 °F /  18.3 °C 56.0 °F /  13.3 °C 29.96in /  1014.4hPa NNE 3.0mph /  4.8km/h 5.0mph /  8km/h 73% 0.00in /  0mm
02:31 64.8 °F /  18.2 °C 56.0 °F /  13.3 °C 29.96in /  1014.4hPa NNE 3.0mph /  4.8km/h 4.0mph /  6.4km/h 73% 0.00in /  0mm
02:36 64.7 °F /  18.2 °C 55.9 °F /  13.3 °C 29.96in /  1014.4hPa NNE 3.0mph /  4.8km/h 4.0mph /  6.4km/h 73% 0.00in /  0mm
02:41 64.7 °F /  18.2 °C 55.9 °F /  13.3 °C 29.96in /  1014.4hPa NE 5.0mph /  8km/h 5.0mph /  8km/h 73% 0.00in /  0mm
02:46 64.6 °F /  18.1 °C 55.8 °F /  13.2 °C 29.96in /  1014.4hPa NNE 4.0mph /  6.4km/h 5.0mph /  8km/h 73% 0.00in /  0mm
02:51 64.6 °F /  18.1 °C 55.8 °F /  13.2 °C 29.96in /  1014.4hPa NE 3.0mph /  4.8km/h 5.0mph /  8km/h 73% 0.00in /  0mm
02:56 64.6 °F /  18.1 °C 55.4 °F /  13 °C 29.96in /  1014.4hPa NNE 2.0mph /  3.2km/h 6.0mph /  9.7km/h 72% 0.00in /  0mm
03:01 64.6 °F /  18.1 °C 55.4 °F /  13 °C 29.96in /  1014.4hPa NNE 2.0mph /  3.2km/h 6.0mph /  9.7km/h 72% 0.00in /  0mm
03:06 64.6 °F /  18.1 °C 55.4 °F /  13 °C 29.96in /  1014.4hPa North 4.0mph /  6.4km/h 5.0mph /  8km/h 72% 0.00in /  0mm
03:11 64.5 °F /  18.1 °C 55.3 °F /  12.9 °C 29.95in /  1014.1hPa NE 3.0mph /  4.8km/h 7.0mph /  11.3km/h 72% 0.00in /  0mm
03:16 64.3 °F /  17.9 °C 55.1 °F /  12.8 °C 29.95in /  1014.1hPa NE 6.0mph /  9.7km/h 6.0mph /  9.7km/h 72% 0.00in /  0mm
03:21 64.2 °F /  17.9 °C 55.4 °F /  13 °C 29.95in /  1014.1hPa NNE 4.0mph /  6.4km/h 6.0mph /  9.7km/h 73% 0.00in /  0mm
03:27 64.2 °F /  17.9 °C 55.0 °F /  12.8 °C 29.95in /  1014.1hPa NE 4.0mph /  6.4km/h 6.0mph /  9.7km/h 72% 0.00in /  0mm
03:32 64.1 °F /  17.8 °C 54.9 °F /  12.7 °C 29.95in /  1014.1hPa NNW 3.0mph /  4.8km/h 5.0mph /  8km/h 72% 0.00in /  0mm
03:37 64.0 °F /  17.8 °C 55.2 °F /  12.9 °C 29.95in /  1014.1hPa NNE 3.0mph /  4.8km/h 4.0mph /  6.4km/h 73% 0.00in /  0mm
03:42 63.9 °F /  17.7 °C 55.1 °F /  12.8 °C 29.96in /  1014.4hPa NNE 3.0mph /  4.8km/h 6.0mph /  9.7km/h 73% 0.00in /  0mm
03:47 63.9 °F /  17.7 °C 55.1 °F /  12.8 °C 29.95in /  1014.1hPa NNE 2.0mph /  3.2km/h 5.0mph /  8km/h 73% 0.00in /  0mm
03:52 63.8 °F /  17.7 °C 55.0 °F /  12.8 °C 29.95in /  1014.1hPa NNE 2.0mph /  3.2km/h 6.0mph /  9.7km/h 73% 0.00in /  0mm
03:57 63.7 °F /  17.6 °C 54.9 °F /  12.7 °C 29.96in /  1014.4hPa NNE 2.0mph /  3.2km/h 4.0mph /  6.4km/h 73% 0.00in /  0mm
04:02 63.5 °F /  17.5 °C 54.7 °F /  12.6 °C 29.96in /  1014.4hPa NE 2.0mph /  3.2km/h 4.0mph /  6.4km/h 73% 0.00in /  0mm
04:07 63.5 °F /  17.5 °C 54.7 °F /  12.6 °C 29.96in /  1014.4hPa NE 2.0mph /  3.2km/h 6.0mph /  9.7km/h 73% 0.00in /  0mm
04:12 63.5 °F /  17.5 °C 54.7 °F /  12.6 °C 29.96in /  1014.4hPa NNE 4.0mph /  6.4km/h 4.0mph /  6.4km/h 73% 0.00in /  0mm
04:17 63.4 °F /  17.4 °C 54.6 °F /  12.6 °C 29.96in /  1014.4hPa NNE 2.0mph /  3.2km/h 5.0mph /  8km/h 73% 0.00in /  0mm
04:22 63.3 °F /  17.4 °C 54.5 °F /  12.5 °C 29.96in /  1014.4hPa NE 5.0mph /  8km/h 5.0mph /  8km/h 73% 0.00in /  0mm
04:27 63.3 °F /  17.4 °C 54.5 °F /  12.5 °C 29.96in /  1014.4hPa NE 3.0mph /  4.8km/h 5.0mph /  8km/h 73% 0.00in /  0mm
04:32 63.2 °F /  17.3 °C 54.8 °F /  12.7 °C 29.96in /  1014.4hPa NE 2.0mph /  3.2km/h 3.0mph /  4.8km/h 74% 0.00in /  0mm
04:37 63.2 °F /  17.3 °C 54.4 °F /  12.4 °C 29.97in /  1014.8hPa NE 2.0mph /  3.2km/h 4.0mph /  6.4km/h 73% 0.00in /  0mm
04:42 63.2 °F /  17.3 °C 54.4 °F /  12.4 °C 29.97in /  1014.8hPa NE 3.0mph /  4.8km/h 6.0mph /  9.7km/h 73% 0.00in /  0mm
04:47 63.1 °F /  17.3 °C 54.7 °F /  12.6 °C 29.97in /  1014.8hPa NNE 3.0mph /  4.8km/h 4.0mph /  6.4km/h 74% 0.00in /  0mm
04:52 62.9 °F /  17.2 °C 54.5 °F /  12.5 °C 29.97in /  1014.8hPa ENE 1.0mph /  1.6km/h 4.0mph /  6.4km/h 74% 0.00in /  0mm
04:57 62.8 °F /  17.1 °C 54.4 °F /  12.4 °C 29.97in /  1014.8hPa NNE 3.0mph /  4.8km/h 5.0mph /  8km/h 74% 0.00in /  0mm
05:02 62.7 °F /  17.1 °C 54.3 °F /  12.4 °C 29.96in /  1014.4hPa NE 2.0mph /  3.2km/h 4.0mph /  6.4km/h 74% 0.00in /  0mm
05:07 62.8 °F /  17.1 °C 54.4 °F /  12.4 °C 29.97in /  1014.8hPa North 2.0mph /  3.2km/h 4.0mph /  6.4km/h 74% 0.00in /  0mm
05:12 62.7 °F /  17.1 °C 54.3 °F /  12.4 °C 29.97in /  1014.8hPa NE 2.0mph /  3.2km/h 4.0mph /  6.4km/h 74% 0.00in /  0mm
05:17 62.7 °F /  17.1 °C 54.3 °F /  12.4 °C 29.97in /  1014.8hPa North 3.0mph /  4.8km/h 4.0mph /  6.4km/h 74% 0.00in /  0mm
05:22 62.7 °F /  17.1 °C 54.3 °F /  12.4 °C 29.97in /  1014.8hPa NNE 3.0mph /  4.8km/h 4.0mph /  6.4km/h 74% 0.00in /  0mm
05:27 62.7 °F /  17.1 °C 54.7 °F /  12.6 °C 29.97in /  1014.8hPa NNE 4.0mph /  6.4km/h 4.0mph /  6.4km/h 75% 0.00in /  0mm
05:32 62.6 °F /  17 °C 54.6 °F /  12.6 °C 29.97in /  1014.8hPa NNE 2.0mph /  3.2km/h 4.0mph /  6.4km/h 75% 0.00in /  0mm
05:37 62.5 °F /  16.9 °C 54.5 °F /  12.5 °C 29.97in /  1014.8hPa NNE 4.0mph /  6.4km/h 5.0mph /  8km/h 75% 0.00in /  0mm
05:42 62.5 °F /  16.9 °C 54.5 °F /  12.5 °C 29.97in /  1014.8hPa NNE 3.0mph /  4.8km/h 5.0mph /  8km/h 75% 0.00in /  0mm
05:47 62.5 °F /  16.9 °C 54.5 °F /  12.5 °C 29.97in /  1014.8hPa NNE 2.0mph /  3.2km/h 5.0mph /  8km/h 75% 0.00in /  0mm
05:52 62.6 °F /  17 °C 54.6 °F /  12.6 °C 29.97in /  1014.8hPa NE 2.0mph /  3.2km/h 3.0mph /  4.8km/h 75% 0.00in /  0mm
05:57 62.7 °F /  17.1 °C 54.3 °F /  12.4 °C 29.97in /  1014.8hPa NE 2.0mph /  3.2km/h 4.0mph /  6.4km/h 74% 0.00in /  0mm
06:02 62.8 °F /  17.1 °C 54.4 °F /  12.4 °C 29.98in /  1015.1hPa NE 3.0mph /  4.8km/h 3.0mph /  4.8km/h 74% 0.00in /  0mm
06:07 62.8 °F /  17.1 °C 54.4 °F /  12.4 °C 29.98in /  1015.1hPa NNE 3.0mph /  4.8km/h 4.0mph /  6.4km/h 74% 0.00in /  0mm
06:12 62.6 °F /  17 °C 54.6 °F /  12.6 °C 29.98in /  1015.1hPa NNE 3.0mph /  4.8km/h 3.0mph /  4.8km/h 75% 0.00in /  0mm
06:17 62.2 °F /  16.8 °C 54.2 °F /  12.3 °C 29.98in /  1015.1hPa North 3.0mph /  4.8km/h 3.0mph /  4.8km/h 75% 0.00in /  0mm
06:22 61.8 °F /  16.6 °C 54.2 °F /  12.3 °C 29.98in /  1015.1hPa NNW 1.0mph /  1.6km/h 4.0mph /  6.4km/h 76% 0.00in /  0mm
06:27 61.6 °F /  16.4 °C 54.3 °F /  12.4 °C 29.98in /  1015.1hPa NNE 3.0mph /  4.8km/h 4.0mph /  6.4km/h 77% 0.00in /  0mm
06:33 61.5 °F /  16.4 °C 54.2 °F /  12.3 °C 29.98in /  1015.1hPa NE 2.0mph /  3.2km/h 3.0mph /  4.8km/h 77% 0.00in /  0mm
06:38 61.6 °F /  16.4 °C 54.3 °F /  12.4 °C 29.99in /  1015.5hPa NE 2.0mph /  3.2km/h 3.0mph /  4.8km/h 77% 0.00in /  0mm
06:43 61.7 °F /  16.5 °C 54.4 °F /  12.4 °C 29.99in /  1015.5hPa NNE 3.0mph /  4.8km/h 3.0mph /  4.8km/h 77% 0.00in /  0mm
06:48 61.8 °F /  16.6 °C 54.5 °F /  12.5 °C 29.99in /  1015.5hPa NNE 4.0mph /  6.4km/h 4.0mph /  6.4km/h 77% 0.00in /  0mm
06:53 62.1 °F /  16.7 °C 54.5 °F /  12.5 °C 29.99in /  1015.5hPa NNE 1.0mph /  1.6km/h 4.0mph /  6.4km/h 76% 0.00in /  0mm
06:58 62.2 °F /  16.8 °C 54.5 °F /  12.5 °C 29.99in /  1015.5hPa North 6.0mph /  9.7km/h 6.0mph /  9.7km/h 76% 0.00in /  0mm
07:03 62.5 °F /  16.9 °C 54.5 °F /  12.5 °C 29.99in /  1015.5hPa North 3.0mph /  4.8km/h 5.0mph /  8km/h 75% 0.00in /  0mm
07:08 62.6 °F /  17 °C 54.6 °F /  12.6 °C 29.99in /  1015.5hPa NNE 1.0mph /  1.6km/h 4.0mph /  6.4km/h 75% 0.00in /  0mm
07:13 62.7 °F /  17.1 °C 54.7 °F /  12.6 °C 30.00in /  1015.8hPa NNE 2.0mph /  3.2km/h 3.0mph /  4.8km/h 75% 0.00in /  0mm
07:18 62.7 °F /  17.1 °C 54.7 °F /  12.6 °C 30.00in /  1015.8hPa NNE 1.0mph /  1.6km/h 2.0mph /  3.2km/h 75% 0.00in /  0mm
07:23 62.6 °F /  17 °C 54.9 °F /  12.7 °C 30.00in /  1015.8hPa NNE 1.0mph /  1.6km/h 3.0mph /  4.8km/h 76% 0.00in /  0mm
07:28 62.8 °F /  17.1 °C 55.1 °F /  12.8 °C 30.00in /  1015.8hPa NE 2.0mph /  3.2km/h 3.0mph /  4.8km/h 76% 0.00in /  0mm
07:33 63.1 °F /  17.3 °C 55.4 °F /  13 °C 30.00in /  1015.8hPa NNW 2.0mph /  3.2km/h 3.0mph /  4.8km/h 76% 0.00in /  0mm
07:38 63.2 °F /  17.3 °C 55.2 °F /  12.9 °C 30.00in /  1015.8hPa NNE 2.0mph /  3.2km/h 4.0mph /  6.4km/h 75% 0.00in /  0mm
07:43 63.6 °F /  17.6 °C 55.9 °F /  13.3 °C 30.00in /  1015.8hPa NE 3.0mph /  4.8km/h 3.0mph /  4.8km/h 76% 0.00in /  0mm
07:48 64.0 °F /  17.8 °C 55.9 °F /  13.3 °C 30.00in /  1015.8hPa North 3.0mph /  4.8km/h 4.0mph /  6.4km/h 75% 0.00in /  0mm
07:53 64.2 °F /  17.9 °C 55.8 °F /  13.2 °C 30.00in /  1015.8hPa NE 5.0mph /  8km/h 5.0mph /  8km/h 74% 0.00in /  0mm
07:58 64.2 °F /  17.9 °C 55.8 °F /  13.2 °C 30.00in /  1015.8hPa ENE 2.0mph /  3.2km/h 6.0mph /  9.7km/h 74% 0.00in /  0mm
08:03 64.5 °F /  18.1 °C 56.4 °F /  13.6 °C 30.00in /  1015.8hPa NE 3.0mph /  4.8km/h 4.0mph /  6.4km/h 75% 0.00in /  0mm
08:08 65.1 °F /  18.4 °C 56.2 °F /  13.4 °C 30.01in /  1016.1hPa NE 3.0mph /  4.8km/h 4.0mph /  6.4km/h 73% 0.00in /  0mm
08:13 65.7 °F /  18.7 °C 56.8 °F /  13.8 °C 30.00in /  1015.8hPa North 5.0mph /  8km/h 5.0mph /  8km/h 73% 0.00in /  0mm
08:18 66.0 °F /  18.9 °C 56.7 °F /  13.7 °C 30.00in /  1015.8hPa NE 4.0mph /  6.4km/h 6.0mph /  9.7km/h 72% 0.00in /  0mm
08:23 66.3 °F /  19.1 °C 57.0 °F /  13.9 °C 30.01in /  1016.1hPa NE 2.0mph /  3.2km/h 7.0mph /  11.3km/h 72% 0.00in /  0mm
08:28 66.9 °F /  19.4 °C 56.8 °F /  13.8 °C 30.01in /  1016.1hPa NE 4.0mph /  6.4km/h 6.0mph /  9.7km/h 70% 0.00in /  0mm
08:33 67.5 °F /  19.7 °C 57.0 °F /  13.9 °C 30.01in /  1016.1hPa NE 3.0mph /  4.8km/h 7.0mph /  11.3km/h 69% 0.00in /  0mm
08:38 67.9 °F /  19.9 °C 57.0 °F /  13.9 °C 30.01in /  1016.1hPa NE 3.0mph /  4.8km/h 7.0mph /  11.3km/h 68% 0.00in /  0mm
08:43 68.4 °F /  20.2 °C 57.8 °F /  14.3 °C 30.01in /  1016.1hPa NE 5.0mph /  8km/h 7.0mph /  11.3km/h 69% 0.00in /  0mm
08:48 68.6 °F /  20.3 °C 58.0 °F /  14.4 °C 30.01in /  1016.1hPa NE 4.0mph /  6.4km/h 8.0mph /  12.9km/h 69% 0.00in /  0mm
08:53 69.0 °F /  20.6 °C 58.8 °F /  14.9 °C 30.02in /  1016.5hPa ESE 5.0mph /  8km/h 5.0mph /  8km/h 70% 0.00in /  0mm
08:58 69.6 °F /  20.9 °C 58.2 °F /  14.6 °C 30.02in /  1016.5hPa NE 4.0mph /  6.4km/h 5.0mph /  8km/h 67% 0.00in /  0mm
09:03 70.2 °F /  21.2 °C 58.3 °F /  14.6 °C 30.02in /  1016.5hPa East 1.0mph /  1.6km/h 4.0mph /  6.4km/h 66% 0.00in /  0mm
09:09 71.1 °F /  21.7 °C 59.6 °F /  15.3 °C 30.02in /  1016.5hPa ENE 3.0mph /  4.8km/h 3.0mph /  4.8km/h 67% 0.00in /  0mm
09:14 71.2 °F /  21.8 °C 58.8 °F /  14.9 °C 30.02in /  1016.5hPa ENE 2.0mph /  3.2km/h 5.0mph /  8km/h 65% 0.00in /  0mm
09:19 71.2 °F /  21.8 °C 58.8 °F /  14.9 °C 30.02in /  1016.5hPa NE 2.0mph /  3.2km/h 3.0mph /  4.8km/h 65% 0.00in /  0mm
09:24 71.7 °F /  22.1 °C 58.9 °F /  14.9 °C 30.02in /  1016.5hPa NE 3.0mph /  4.8km/h 5.0mph /  8km/h 64% 0.00in /  0mm
09:29 72.2 °F /  22.3 °C 60.2 °F /  15.7 °C 30.02in /  1016.5hPa East 3.0mph /  4.8km/h 4.0mph /  6.4km/h 66% 0.00in /  0mm
09:34 72.4 °F /  22.4 °C 58.7 °F /  14.8 °C 30.03in /  1016.8hPa ESE 4.0mph /  6.4km/h 7.0mph /  11.3km/h 62% 0.00in /  0mm
09:39 72.2 °F /  22.3 °C 58.5 °F /  14.7 °C 30.03in /  1016.8hPa ESE 5.0mph /  8km/h 7.0mph /  11.3km/h 62% 0.00in /  0mm
09:44 72.2 °F /  22.3 °C 58.9 °F /  14.9 °C 30.02in /  1016.5hPa NE 3.0mph /  4.8km/h 8.0mph /  12.9km/h 63% 0.00in /  0mm
09:49 72.7 °F /  22.6 °C 59.8 °F /  15.4 °C 30.02in /  1016.5hPa ENE 4.0mph /  6.4km/h 7.0mph /  11.3km/h 64% 0.00in /  0mm
09:54 73.0 °F /  22.8 °C 59.7 °F /  15.4 °C 30.02in /  1016.5hPa East 6.0mph /  9.7km/h 6.0mph /  9.7km/h 63% 0.00in /  0mm
09:59 73.3 °F /  22.9 °C 60.0 °F /  15.6 °C 30.02in /  1016.5hPa ENE 3.0mph /  4.8km/h 7.0mph /  11.3km/h 63% 0.00in /  0mm
10:04 73.5 °F /  23.1 °C 60.2 °F /  15.7 °C 30.02in /  1016.5hPa NE 5.0mph /  8km/h 7.0mph /  11.3km/h 63% 0.00in /  0mm
10:09 73.5 °F /  23.1 °C 60.2 °F /  15.7 °C 30.02in /  1016.5hPa East 7.0mph /  11.3km/h 7.0mph /  11.3km/h 63% 0.00in /  0mm
10:14 73.7 °F /  23.2 °C 59.0 °F /  15 °C 30.02in /  1016.5hPa NE 3.0mph /  4.8km/h 9.0mph /  14.5km/h 60% 0.00in /  0mm
10:19 74.1 °F /  23.4 °C 60.3 °F /  15.7 °C 30.02in /  1016.5hPa SE 5.0mph /  8km/h 7.0mph /  11.3km/h 62% 0.00in /  0mm
10:24 74.2 °F /  23.4 °C 59.4 °F /  15.2 °C 30.02in /  1016.5hPa East 3.0mph /  4.8km/h 8.0mph /  12.9km/h 60% 0.00in /  0mm
10:29 74.5 °F /  23.6 °C 60.6 °F /  15.9 °C 30.02in /  1016.5hPa East 4.0mph /  6.4km/h 7.0mph /  11.3km/h 62% 0.00in /  0mm
10:34 74.8 °F /  23.8 °C 59.0 °F /  15 °C 30.02in /  1016.5hPa East 5.0mph /  8km/h 8.0mph /  12.9km/h 58% 0.00in /  0mm
10:39 74.9 °F /  23.8 °C 59.6 °F /  15.3 °C 30.02in /  1016.5hPa ESE 7.0mph /  11.3km/h 7.0mph /  11.3km/h 59% 0.00in /  0mm
10:44 75.1 °F /  23.9 °C 59.8 °F /  15.4 °C 30.02in /  1016.5hPa ESE 6.0mph /  9.7km/h 7.0mph /  11.3km/h 59% 0.00in /  0mm
10:49 75.2 °F /  24 °C 59.9 °F /  15.5 °C 30.02in /  1016.5hPa East 3.0mph /  4.8km/h 6.0mph /  9.7km/h 59% 0.00in /  0mm
10:54 75.4 °F /  24.1 °C 60.1 °F /  15.6 °C 30.02in /  1016.5hPa ESE 8.0mph /  12.9km/h 9.0mph /  14.5km/h 59% 0.00in /  0mm
10:59 75.7 °F /  24.3 °C 60.4 °F /  15.8 °C 30.02in /  1016.5hPa ESE 5.0mph /  8km/h 7.0mph /  11.3km/h 59% 0.00in /  0mm
11:04 75.9 °F /  24.4 °C 60.6 °F /  15.9 °C 30.02in /  1016.5hPa ESE 2.0mph /  3.2km/h 5.0mph /  8km/h 59% 0.00in /  0mm
11:09 76.1 °F /  24.5 °C 61.7 °F /  16.5 °C 30.02in /  1016.5hPa East 7.0mph /  11.3km/h 7.0mph /  11.3km/h 61% 0.00in /  0mm
11:14 76.4 °F /  24.7 °C 60.5 °F /  15.8 °C 30.02in /  1016.5hPa SE 7.0mph /  11.3km/h 9.0mph /  14.5km/h 58% 0.00in /  0mm
11:19 76.4 °F /  24.7 °C 61.0 °F /  16.1 °C 30.02in /  1016.5hPa ENE 5.0mph /  8km/h 9.0mph /  14.5km/h 59% 0.00in /  0mm
11:24 76.7 °F /  24.8 °C 61.3 °F /  16.3 °C 30.02in /  1016.5hPa SE 2.0mph /  3.2km/h 8.0mph /  12.9km/h 59% 0.00in /  0mm
11:29 77.2 °F /  25.1 °C 62.2 °F /  16.8 °C 30.02in /  1016.5hPa ESE 3.0mph /  4.8km/h 5.0mph /  8km/h 60% 0.00in /  0mm
11:34 77.4 °F /  25.2 °C 62.0 °F /  16.7 °C 30.02in /  1016.5hPa SE 7.0mph /  11.3km/h 7.0mph /  11.3km/h 59% 0.00in /  0mm
11:39 77.4 °F /  25.2 °C 61.5 °F /  16.4 °C 30.02in /  1016.5hPa ENE 4.0mph /  6.4km/h 9.0mph /  14.5km/h 58% 0.00in /  0mm
11:44 77.7 °F /  25.4 °C 61.8 °F /  16.6 °C 30.02in /  1016.5hPa East 6.0mph /  9.7km/h 8.0mph /  12.9km/h 58% 0.00in /  0mm
11:49 78.0 °F /  25.6 °C 61.0 °F /  16.1 °C 30.02in /  1016.5hPa ENE 2.0mph /  3.2km/h 6.0mph /  9.7km/h 56% 0.00in /  0mm
11:54 77.9 °F /  25.5 °C 61.0 °F /  16.1 °C 30.02in /  1016.5hPa East 1.0mph /  1.6km/h 5.0mph /  8km/h 56% 0.00in /  0mm
11:59 78.3 °F /  25.7 °C 61.8 °F /  16.6 °C 30.02in /  1016.5hPa ESE 1.0mph /  1.6km/h 10.0mph /  16.1km/h 57% 0.00in /  0mm
12:04 78.5 °F /  25.8 °C 63.5 °F /  17.5 °C 30.01in /  1016.1hPa Calm   7.0mph /  11.3km/h 60% 0.00in /  0mm
12:09 78.9 °F /  26.1 °C 62.4 °F /  16.9 °C 30.01in /  1016.1hPa ESE 5.0mph /  8km/h 8.0mph /  12.9km/h 57% 0.00in /  0mm
12:14 79.3 °F /  26.3 °C 61.8 °F /  16.6 °C 30.01in /  1016.1hPa ENE 7.0mph /  11.3km/h 8.0mph /  12.9km/h 55% 0.00in /  0mm
12:19 78.9 °F /  26.1 °C 61.4 °F /  16.3 °C 30.01in /  1016.1hPa SE 3.0mph /  4.8km/h 7.0mph /  11.3km/h 55% 0.00in /  0mm
12:25 78.8 °F /  26 °C 60.8 °F /  16 °C 30.01in /  1016.1hPa SE 3.0mph /  4.8km/h 7.0mph /  11.3km/h 54% 0.00in /  0mm
12:30 79.0 °F /  26.1 °C 61.5 °F /  16.4 °C 30.01in /  1016.1hPa NE 3.0mph /  4.8km/h 8.0mph /  12.9km/h 55% 0.00in /  0mm
12:35 79.3 °F /  26.3 °C 62.8 °F /  17.1 °C 30.01in /  1016.1hPa East 4.0mph /  6.4km/h 7.0mph /  11.3km/h 57% 0.00in /  0mm
12:40 79.6 °F /  26.4 °C 62.5 °F /  16.9 °C 30.01in /  1016.1hPa East 4.0mph /  6.4km/h 7.0mph /  11.3km/h 56% 0.00in /  0mm
12:45 79.7 °F /  26.5 °C 61.6 °F /  16.4 °C 30.01in /  1016.1hPa ESE 5.0mph /  8km/h 9.0mph /  14.5km/h 54% 0.00in /  0mm
12:50 79.9 °F /  26.6 °C 61.8 °F /  16.6 °C 30.00in /  1015.8hPa NE 2.0mph /  3.2km/h 7.0mph /  11.3km/h 54% 0.00in /  0mm
12:55 80.2 °F /  26.8 °C 61.0 °F /  16.1 °C 30.00in /  1015.8hPa East 7.0mph /  11.3km/h 7.0mph /  11.3km/h 52% 0.00in /  0mm
13:00 80.1 °F /  26.7 °C 56.2 °F /  13.4 °C 30.00in /  1015.8hPa East 6.0mph /  9.7km/h 8.0mph /  12.9km/h 44% 0.00in /  0mm
13:05 80.1 °F /  26.7 °C 58.1 °F /  14.5 °C 30.00in /  1015.8hPa Calm   5.0mph /  8km/h 47% 0.00in /  0mm
13:10 79.9 °F /  26.6 °C 60.7 °F /  15.9 °C 30.00in /  1015.8hPa ESE 3.0mph /  4.8km/h 5.0mph /  8km/h 52% 0.00in /  0mm
13:15 79.4 °F /  26.3 °C 59.2 °F /  15.1 °C 30.00in /  1015.8hPa ESE 2.0mph /  3.2km/h 5.0mph /  8km/h 50% 0.00in /  0mm
13:20 79.1 °F /  26.2 °C 60.0 °F /  15.6 °C 30.00in /  1015.8hPa SE 6.0mph /  9.7km/h 6.0mph /  9.7km/h 52% 0.00in /  0mm
13:25 79.5 °F /  26.4 °C 59.2 °F /  15.1 °C 30.00in /  1015.8hPa ESE 6.0mph /  9.7km/h 8.0mph /  12.9km/h 50% 0.00in /  0mm
13:30 79.3 °F /  26.3 °C 59.1 °F /  15.1 °C 29.99in /  1015.5hPa NNE 4.0mph /  6.4km/h 4.0mph /  6.4km/h 50% 0.00in /  0mm
13:35 80.0 °F /  26.7 °C 60.8 °F /  16 °C 29.99in /  1015.5hPa ENE 6.0mph /  9.7km/h 7.0mph /  11.3km/h 52% 0.00in /  0mm
13:40 80.5 °F /  26.9 °C 58.4 °F /  14.7 °C 29.99in /  1015.5hPa ENE 2.0mph /  3.2km/h 9.0mph /  14.5km/h 47% 0.00in /  0mm
13:45 80.8 °F /  27.1 °C 59.3 °F /  15.2 °C 29.99in /  1015.5hPa NNE 3.0mph /  4.8km/h 8.0mph /  12.9km/h 48% 0.00in /  0mm
13:50 80.6 °F /  27 °C 57.9 °F /  14.4 °C 29.98in /  1015.1hPa NNE 4.0mph /  6.4km/h 8.0mph /  12.9km/h 46% 0.00in /  0mm
13:55 80.4 °F /  26.9 °C 58.9 °F /  14.9 °C 29.98in /  1015.1hPa ESE 5.0mph /  8km/h 10.0mph /  16.1km/h 48% 0.00in /  0mm
14:00 80.7 °F /  27.1 °C 58.0 °F /  14.4 °C 29.98in /  1015.1hPa East 4.0mph /  6.4km/h 6.0mph /  9.7km/h 46% 0.00in /  0mm
14:05 81.1 °F /  27.3 °C 56.5 °F /  13.6 °C 29.98in /  1015.1hPa East 2.0mph /  3.2km/h 5.0mph /  8km/h 43% 0.00in /  0mm
14:10 81.4 °F /  27.4 °C 56.1 °F /  13.4 °C 29.98in /  1015.1hPa ESE 6.0mph /  9.7km/h 8.0mph /  12.9km/h 42% 0.00in /  0mm
14:15 81.5 °F /  27.5 °C 58.1 °F /  14.5 °C 29.97in /  1014.8hPa SE 5.0mph /  8km/h 9.0mph /  14.5km/h 45% 0.00in /  0mm
14:20 81.5 °F /  27.5 °C 58.8 °F /  14.9 °C 29.97in /  1014.8hPa ESE 4.0mph /  6.4km/h 7.0mph /  11.3km/h 46% 0.00in /  0mm
14:25 81.9 °F /  27.7 °C 59.7 °F /  15.4 °C 29.97in /  1014.8hPa ESE 6.0mph /  9.7km/h 7.0mph /  11.3km/h 47% 0.00in /  0mm
14:30 81.7 °F /  27.6 °C 58.9 °F /  14.9 °C 29.97in /  1014.8hPa SE 1.0mph /  1.6km/h 7.0mph /  11.3km/h 46% 0.00in /  0mm
14:35 81.5 °F /  27.5 °C 59.3 °F /  15.2 °C 29.97in /  1014.8hPa NE 3.0mph /  4.8km/h 10.0mph /  16.1km/h 47% 0.00in /  0mm
14:40 80.5 °F /  26.9 °C 57.8 °F /  14.3 °C 29.97in /  1014.8hPa NE 4.0mph /  6.4km/h 9.0mph /  14.5km/h 46% 0.00in /  0mm
14:45 80.4 °F /  26.9 °C 58.3 °F /  14.6 °C 29.97in /  1014.8hPa NNE 4.0mph /  6.4km/h 7.0mph /  11.3km/h 47% 0.00in /  0mm
14:50 80.8 °F /  27.1 °C 60.4 °F /  15.8 °C 29.97in /  1014.8hPa NE 3.0mph /  4.8km/h 4.0mph /  6.4km/h 50% 0.00in /  0mm
14:55 81.3 °F /  27.4 °C 58.0 °F /  14.4 °C 29.96in /  1014.4hPa SE 4.0mph /  6.4km/h 5.0mph /  8km/h 45% 0.00in /  0mm
15:00 81.9 °F /  27.7 °C 58.5 °F /  14.7 °C 29.96in /  1014.4hPa South 1.0mph /  1.6km/h 6.0mph /  9.7km/h 45% 0.00in /  0mm
15:05 82.3 °F /  27.9 °C 58.9 °F /  14.9 °C 29.96in /  1014.4hPa ENE 4.0mph /  6.4km/h 8.0mph /  12.9km/h 45% 0.00in /  0mm
15:10 82.2 °F /  27.9 °C 56.8 °F /  13.8 °C 29.96in /  1014.4hPa SW 1.0mph /  1.6km/h 6.0mph /  9.7km/h 42% 0.00in /  0mm
15:15 82.3 °F /  27.9 °C 56.9 °F /  13.8 °C 29.95in /  1014.1hPa ENE 4.0mph /  6.4km/h 7.0mph /  11.3km/h 42% 0.00in /  0mm
15:20 82.3 °F /  27.9 °C 58.9 °F /  14.9 °C 29.95in /  1014.1hPa East 5.0mph /  8km/h 8.0mph /  12.9km/h 45% 0.00in /  0mm
15:25 82.5 °F /  28.1 °C 58.4 °F /  14.7 °C 29.95in /  1014.1hPa WNW 3.0mph /  4.8km/h 4.0mph /  6.4km/h 44% 0.00in /  0mm
15:30 83.0 °F /  28.3 °C 60.1 °F /  15.6 °C 29.95in /  1014.1hPa NE 7.0mph /  11.3km/h 7.0mph /  11.3km/h 46% 0.00in /  0mm
15:35 82.7 °F /  28.2 °C 58.0 °F /  14.4 °C 29.95in /  1014.1hPa NE 6.0mph /  9.7km/h 11.0mph /  17.7km/h 43% 0.00in /  0mm
15:40 82.2 °F /  27.9 °C 58.8 °F /  14.9 °C 29.95in /  1014.1hPa NE 3.0mph /  4.8km/h 7.0mph /  11.3km/h 45% 0.00in /  0mm
15:45 82.1 °F /  27.8 °C 58.7 °F /  14.8 °C 29.95in /  1014.1hPa NE 8.0mph /  12.9km/h 8.0mph /  12.9km/h 45% 0.00in /  0mm
15:51 82.2 °F /  27.9 °C 58.1 °F /  14.5 °C 29.95in /  1014.1hPa East 7.0mph /  11.3km/h 8.0mph /  12.9km/h 44% 0.00in /  0mm
15:56 82.3 °F /  27.9 °C 58.2 °F /  14.6 °C 29.95in /  1014.1hPa ENE 5.0mph /  8km/h 8.0mph /  12.9km/h 44% 0.00in /  0mm
16:01 82.2 °F /  27.9 °C 56.8 °F /  13.8 °C 29.95in /  1014.1hPa NNE 4.0mph /  6.4km/h 6.0mph /  9.7km/h 42% 0.00in /  0mm
16:06 82.2 °F /  27.9 °C 57.5 °F /  14.2 °C 29.94in /  1013.8hPa NE 4.0mph /  6.4km/h 7.0mph /  11.3km/h 43% 0.00in /  0mm
16:11 82.4 °F /  28 °C 57.7 °F /  14.3 °C 29.94in /  1013.8hPa ENE 6.0mph /  9.7km/h 7.0mph /  11.3km/h 43% 0.00in /  0mm
16:16 82.3 °F /  27.9 °C 57.6 °F /  14.2 °C 29.94in /  1013.8hPa NW 2.0mph /  3.2km/h 11.0mph /  17.7km/h 43% 0.00in /  0mm
16:21 82.4 °F /  28 °C 58.3 °F /  14.6 °C 29.94in /  1013.8hPa NE 7.0mph /  11.3km/h 7.0mph /  11.3km/h 44% 0.00in /  0mm
16:26 82.3 °F /  27.9 °C 56.9 °F /  13.8 °C 29.94in /  1013.8hPa NE 4.0mph /  6.4km/h 9.0mph /  14.5km/h 42% 0.00in /  0mm
16:31 82.3 °F /  27.9 °C 56.9 °F /  13.8 °C 29.94in /  1013.8hPa East 4.0mph /  6.4km/h 7.0mph /  11.3km/h 42% 0.00in /  0mm
16:36 82.3 °F /  27.9 °C 58.2 °F /  14.6 °C 29.94in /  1013.8hPa NE 5.0mph /  8km/h 8.0mph /  12.9km/h 44% 0.00in /  0mm
16:41 82.5 °F /  28.1 °C 57.8 °F /  14.3 °C 29.94in /  1013.8hPa NNE 1.0mph /  1.6km/h 8.0mph /  12.9km/h 43% 0.00in /  0mm
16:46 82.7 °F /  28.2 °C 58.0 °F /  14.4 °C 29.93in /  1013.4hPa NE 6.0mph /  9.7km/h 9.0mph /  14.5km/h 43% 0.00in /  0mm
16:51 82.7 °F /  28.2 °C 58.6 °F /  14.8 °C 29.93in /  1013.4hPa East 1.0mph /  1.6km/h 6.0mph /  9.7km/h 44% 0.00in /  0mm
16:56 82.7 °F /  28.2 °C 57.3 °F /  14.1 °C 29.93in /  1013.4hPa ESE 4.0mph /  6.4km/h 7.0mph /  11.3km/h 42% 0.00in /  0mm
17:01 82.9 °F /  28.3 °C 57.5 °F /  14.2 °C 29.93in /  1013.4hPa NE 3.0mph /  4.8km/h 7.0mph /  11.3km/h 42% 0.00in /  0mm
17:06 83.0 °F /  28.3 °C 57.6 °F /  14.2 °C 29.92in /  1013.1hPa East 4.0mph /  6.4km/h 9.0mph /  14.5km/h 42% 0.00in /  0mm
17:11 82.8 °F /  28.2 °C 56.7 °F /  13.7 °C 29.93in /  1013.4hPa ENE 6.0mph /  9.7km/h 9.0mph /  14.5km/h 41% 0.00in /  0mm
17:16 82.6 °F /  28.1 °C 59.8 °F /  15.4 °C 29.92in /  1013.1hPa East 3.0mph /  4.8km/h 5.0mph /  8km/h 46% 0.00in /  0mm
17:21 82.8 °F /  28.2 °C 58.0 °F /  14.4 °C 29.92in /  1013.1hPa NE 5.0mph /  8km/h 5.0mph /  8km/h 43% 0.00in /  0mm
17:26 82.8 °F /  28.2 °C 58.0 °F /  14.4 °C 29.92in /  1013.1hPa NNE 1.0mph /  1.6km/h 5.0mph /  8km/h 43% 0.00in /  0mm
17:31 82.9 °F /  28.3 °C 58.8 °F /  14.9 °C 29.92in /  1013.1hPa NNE 3.0mph /  4.8km/h 8.0mph /  12.9km/h 44% 0.00in /  0mm
17:36 82.8 °F /  28.2 °C 58.0 °F /  14.4 °C 29.92in /  1013.1hPa ENE 5.0mph /  8km/h 8.0mph /  12.9km/h 43% 0.00in /  0mm
17:41 82.8 °F /  28.2 °C 59.3 °F /  15.2 °C 29.92in /  1013.1hPa NNW 2.0mph /  3.2km/h 7.0mph /  11.3km/h 45% 0.00in /  0mm
17:46 82.8 °F /  28.2 °C 58.7 °F /  14.8 °C 29.92in /  1013.1hPa NNE 2.0mph /  3.2km/h 8.0mph /  12.9km/h 44% 0.00in /  0mm
17:51 83.0 °F /  28.3 °C 58.2 °F /  14.6 °C 29.91in /  1012.8hPa ENE 6.0mph /  9.7km/h 6.0mph /  9.7km/h 43% 0.00in /  0mm
17:56 82.9 °F /  28.3 °C 56.8 °F /  13.8 °C 29.91in /  1012.8hPa NE 2.0mph /  3.2km/h 6.0mph /  9.7km/h 41% 0.00in /  0mm
18:01 82.7 °F /  28.2 °C 57.3 °F /  14.1 °C 29.91in /  1012.8hPa ENE 3.0mph /  4.8km/h 5.0mph /  8km/h 42% 0.00in /  0mm
18:06 82.8 °F /  28.2 °C 57.4 °F /  14.1 °C 29.91in /  1012.8hPa East 5.0mph /  8km/h 7.0mph /  11.3km/h 42% 0.00in /  0mm
18:11 82.9 °F /  28.3 °C 56.8 °F /  13.8 °C 29.91in /  1012.8hPa NE 3.0mph /  4.8km/h 8.0mph /  12.9km/h 41% 0.00in /  0mm
18:16 82.7 °F /  28.2 °C 58.0 °F /  14.4 °C 29.91in /  1012.8hPa NE 1.0mph /  1.6km/h 4.0mph /  6.4km/h 43% 0.00in /  0mm
18:21 82.9 °F /  28.3 °C 58.1 °F /  14.5 °C 29.91in /  1012.8hPa East 4.0mph /  6.4km/h 5.0mph /  8km/h 43% 0.00in /  0mm
18:26 83.2 °F /  28.4 °C 60.3 °F /  15.7 °C 29.91in /  1012.8hPa ENE 3.0mph /  4.8km/h 4.0mph /  6.4km/h 46% 0.00in /  0mm
18:32 83.2 °F /  28.4 °C 59.0 °F /  15 °C 29.91in /  1012.8hPa ENE 6.0mph /  9.7km/h 7.0mph /  11.3km/h 44% 0.00in /  0mm
18:37 82.8 °F /  28.2 °C 58.7 °F /  14.8 °C 29.91in /  1012.8hPa NE 3.0mph /  4.8km/h 8.0mph /  12.9km/h 44% 0.00in /  0mm
18:42 82.8 °F /  28.2 °C 59.3 °F /  15.2 °C 29.90in /  1012.4hPa NE 4.0mph /  6.4km/h 6.0mph /  9.7km/h 45% 0.00in /  0mm
18:47 83.1 °F /  28.4 °C 59.0 °F /  15 °C 29.91in /  1012.8hPa ENE 2.0mph /  3.2km/h 5.0mph /  8km/h 44% 0.00in /  0mm
18:52 83.3 °F /  28.5 °C 57.8 °F /  14.3 °C 29.91in /  1012.8hPa ESE 1.0mph /  1.6km/h 3.0mph /  4.8km/h 42% 0.00in /  0mm
18:57 83.3 °F /  28.5 °C 56.5 °F /  13.6 °C 29.91in /  1012.8hPa East 4.0mph /  6.4km/h 5.0mph /  8km/h 40% 0.00in /  0mm
19:02 83.1 °F /  28.4 °C 57.0 °F /  13.9 °C 29.91in /  1012.8hPa ENE 3.0mph /  4.8km/h 5.0mph /  8km/h 41% 0.00in /  0mm
19:07 82.8 °F /  28.2 °C 58.0 °F /  14.4 °C 29.91in /  1012.8hPa East 1.0mph /  1.6km/h 4.0mph /  6.4km/h 43% 0.00in /  0mm
19:12 82.8 °F /  28.2 °C 58.0 °F /  14.4 °C 29.91in /  1012.8hPa ESE 2.0mph /  3.2km/h 5.0mph /  8km/h 43% 0.00in /  0mm
19:17 82.8 °F /  28.2 °C 58.0 °F /  14.4 °C 29.91in /  1012.8hPa East 1.0mph /  1.6km/h 3.0mph /  4.8km/h 43% 0.00in /  0mm
19:22 82.9 °F /  28.3 °C 59.4 °F /  15.2 °C 29.91in /  1012.8hPa ENE 1.0mph /  1.6km/h 4.0mph /  6.4km/h 45% 0.00in /  0mm
19:27 82.9 °F /  28.3 °C 58.8 °F /  14.9 °C 29.91in /  1012.8hPa ENE 1.0mph /  1.6km/h 4.0mph /  6.4km/h 44% 0.00in /  0mm
19:32 82.8 °F /  28.2 °C 58.7 °F /  14.8 °C 29.91in /  1012.8hPa NE 3.0mph /  4.8km/h 3.0mph /  4.8km/h 44% 0.00in /  0mm
19:37 82.6 °F /  28.1 °C 59.1 °F /  15.1 °C 29.91in /  1012.8hPa ENE 2.0mph /  3.2km/h 3.0mph /  4.8km/h 45% 0.00in /  0mm
19:42 82.3 °F /  27.9 °C 59.5 °F /  15.3 °C 29.92in /  1013.1hPa ENE 2.0mph /  3.2km/h 3.0mph /  4.8km/h 46% 0.00in /  0mm
19:47 82.1 °F /  27.8 °C 59.9 °F /  15.5 °C 29.92in /  1013.1hPa ESE 1.0mph /  1.6km/h 3.0mph /  4.8km/h 47% 0.00in /  0mm
19:52 82.0 °F /  27.8 °C 59.8 °F /  15.4 °C 29.92in /  1013.1hPa ENE 2.0mph /  3.2km/h 3.0mph /  4.8km/h 47% 0.00in /  0mm
19:57 81.8 °F /  27.7 °C 60.8 °F /  16 °C 29.92in /  1013.1hPa East 1.0mph /  1.6km/h 1.0mph /  1.6km/h 49% 0.00in /  0mm
20:02 81.6 °F /  27.6 °C 61.7 °F /  16.5 °C 29.92in /  1013.1hPa Calm   1.0mph /  1.6km/h 51% 0.00in /  0mm
20:07 81.3 °F /  27.4 °C 62.0 °F /  16.7 °C 29.92in /  1013.1hPa Calm   1.0mph /  1.6km/h 52% 0.00in /  0mm
20:12 80.9 °F /  27.2 °C 61.6 °F /  16.4 °C 29.92in /  1013.1hPa Calm     52% 0.00in /  0mm
20:17 80.6 °F /  27 °C 61.9 °F /  16.6 °C 29.92in /  1013.1hPa Calm   1.0mph /  1.6km/h 53% 0.00in /  0mm
20:22 80.1 °F /  26.7 °C 62.0 °F /  16.7 °C 29.92in /  1013.1hPa Calm     54% 0.00in /  0mm
20:27 79.8 °F /  26.6 °C 61.2 °F /  16.2 °C 29.92in /  1013.1hPa Calm     53% 0.00in /  0mm
20:32 79.6 °F /  26.4 °C 62.0 °F /  16.7 °C 29.92in /  1013.1hPa Calm     55% 0.00in /  0mm
20:37 79.5 °F /  26.4 °C 62.5 °F /  16.9 °C 29.92in /  1013.1hPa Calm     56% 0.00in /  0mm
20:42 79.9 °F /  26.6 °C 62.8 °F /  17.1 °C 29.92in /  1013.1hPa Calm     56% 0.00in /  0mm
20:47 79.4 °F /  26.3 °C 61.3 °F /  16.3 °C 29.92in /  1013.1hPa Calm     54% 0.00in /  0mm
20:52 78.5 °F /  25.8 °C 62.5 °F /  16.9 °C 29.92in /  1013.1hPa Calm     58% 0.00in /  0mm
20:57 77.0 °F /  25 °C 62.1 °F /  16.7 °C 29.92in /  1013.1hPa East 1.0mph /  1.6km/h 1.0mph /  1.6km/h 60% 0.00in /  0mm
21:02 76.0 °F /  24.4 °C 60.7 °F /  15.9 °C 29.92in /  1013.1hPa Calm   1.0mph /  1.6km/h 59% 0.00in /  0mm
21:07 75.3 °F /  24.1 °C 60.9 °F /  16.1 °C 29.92in /  1013.1hPa Calm     61% 0.00in /  0mm
21:12 74.5 °F /  23.6 °C 61.1 °F /  16.2 °C 29.92in /  1013.1hPa Calm     63% 0.00in /  0mm
21:17 73.7 °F /  23.2 °C 61.7 °F /  16.5 °C 29.92in /  1013.1hPa Calm     66% 0.00in /  0mm
21:23 72.6 °F /  22.6 °C 61.4 °F /  16.3 °C 29.92in /  1013.1hPa Calm     68% 0.00in /  0mm
21:28 71.9 °F /  22.2 °C 62.4 °F /  16.9 °C 29.91in /  1012.8hPa Calm   1.0mph /  1.6km/h 72% 0.00in /  0mm
21:33 71.6 °F /  22 °C 62.1 °F /  16.7 °C 29.92in /  1013.1hPa East 1.0mph /  1.6km/h 2.0mph /  3.2km/h 72% 0.00in /  0mm
21:38 71.6 °F /  22 °C 61.7 °F /  16.5 °C 29.92in /  1013.1hPa Calm     71% 0.00in /  0mm
21:43 71.1 °F /  21.7 °C 60.8 °F /  16 °C 29.92in /  1013.1hPa Calm     70% 0.00in /  0mm
21:48 70.8 °F /  21.6 °C 60.5 °F /  15.8 °C 29.92in /  1013.1hPa Calm     70% 0.00in /  0mm
21:53 70.6 °F /  21.4 °C 60.3 °F /  15.7 °C 29.92in /  1013.1hPa Calm     70% 0.00in /  0mm
21:58 70.1 °F /  21.2 °C 61.0 °F /  16.1 °C 29.92in /  1013.1hPa Calm     73% 0.00in /  0mm
22:03 69.6 °F /  20.9 °C 61.0 °F /  16.1 °C 29.92in /  1013.1hPa Calm     74% 0.00in /  0mm
22:08 69.1 °F /  20.6 °C 60.5 °F /  15.8 °C 29.92in /  1013.1hPa Calm     74% 0.00in /  0mm
22:13 69.2 °F /  20.7 °C 60.6 °F /  15.9 °C 29.92in /  1013.1hPa Calm     74% 0.00in /  0mm
22:18 69.4 °F /  20.8 °C 60.4 °F /  15.8 °C 29.92in /  1013.1hPa Calm     73% 0.00in /  0mm
22:23 69.0 °F /  20.6 °C 60.4 °F /  15.8 °C 29.92in /  1013.1hPa Calm     74% 0.00in /  0mm
22:28 68.6 °F /  20.3 °C 60.7 °F /  15.9 °C 29.93in /  1013.4hPa Calm     76% 0.00in /  0mm
22:33 68.3 °F /  20.2 °C 60.5 °F /  15.8 °C 29.93in /  1013.4hPa Calm     76% 0.00in /  0mm
22:38 68.7 °F /  20.4 °C 60.5 °F /  15.8 °C 29.93in /  1013.4hPa Calm     75% 0.00in /  0mm
22:43 68.7 °F /  20.4 °C 60.1 °F /  15.6 °C 29.93in /  1013.4hPa Calm     74% 0.00in /  0mm
22:48 69.7 °F /  20.9 °C 59.1 °F /  15.1 °C 29.93in /  1013.4hPa Calm     69% 0.00in /  0mm
22:53 70.7 °F /  21.5 °C 59.2 °F /  15.1 °C 29.93in /  1013.4hPa East 1.0mph /  1.6km/h 1.0mph /  1.6km/h 67% 0.00in /  0mm
22:58 71.2 °F /  21.8 °C 59.7 °F /  15.4 °C 29.93in /  1013.4hPa Calm   1.0mph /  1.6km/h 67% 0.00in /  0mm
23:03 71.1 °F /  21.7 °C 60.0 °F /  15.6 °C 29.93in /  1013.4hPa Calm     68% 0.00in /  0mm
23:08 70.2 °F /  21.2 °C 60.4 °F /  15.8 °C 29.93in /  1013.4hPa Calm     71% 0.00in /  0mm
23:13 69.3 °F /  20.7 °C 60.7 °F /  15.9 °C 29.93in /  1013.4hPa Calm     74% 0.00in /  0mm
23:18 68.4 °F /  20.2 °C 59.8 °F /  15.4 °C 29.93in /  1013.4hPa East 1.0mph /  1.6km/h 1.0mph /  1.6km/h 74% 0.00in /  0mm
23:23 68.9 °F /  20.5 °C 59.1 °F /  15.1 °C 29.93in /  1013.4hPa East 1.0mph /  1.6km/h 1.0mph /  1.6km/h 71% 0.00in /  0mm
23:28 69.5 °F /  20.8 °C 59.3 °F /  15.2 °C 29.93in /  1013.4hPa East 1.0mph /  1.6km/h 2.0mph /  3.2km/h 70% 0.00in /  0mm
23:33 69.2 °F /  20.7 °C 59.8 °F /  15.4 °C 29.93in /  1013.4hPa Calm   1.0mph /  1.6km/h 72% 0.00in /  0mm
23:38 68.4 °F /  20.2 °C 59.4 °F /  15.2 °C 29.93in /  1013.4hPa East 1.0mph /  1.6km/h 1.0mph /  1.6km/h 73% 0.00in /  0mm
23:43 68.6 °F /  20.3 °C 59.6 °F /  15.3 °C 29.94in /  1013.8hPa Calm   1.0mph /  1.6km/h 73% 0.00in /  0mm
23:48 68.5 °F /  20.3 °C 59.9 °F /  15.5 °C 29.93in /  1013.4hPa East 1.0mph /  1.6km/h 1.0mph /  1.6km/h 74% 0.00in /  0mm
23:53 68.2 °F /  20.1 °C 60.0 °F /  15.6 °C 29.94in /  1013.8hPa Calm   1.0mph /  1.6km/h 75% 0.00in /  0mm
23:58 68.2 °F /  20.1 °C 59.2 °F /  15.1 °C 29.94in /  1013.8hPa Calm     73% 0.00in /  0mm
Compliments of Weather Underground